createdAt,value
2023-03-28T00:01:57.146Z,6.90
2023-03-28T00:04:14.429Z,4.50
2023-03-28T00:06:31.950Z,8.15
2023-03-28T00:08:49.215Z,4.93
2023-03-28T00:11:06.547Z,4.28
2023-03-28T00:13:24.742Z,2.92
2023-03-28T00:15:42.725Z,6.63
2023-03-28T00:18:00.353Z,6.63
2023-03-28T00:20:17.672Z,4.32
2023-03-28T00:22:34.676Z,4.75
2023-03-28T00:24:51.962Z,4.03
2023-03-28T00:27:09.238Z,4.28
2023-03-28T00:29:26.525Z,3.00
2023-03-28T00:31:43.911Z,4.22
2023-03-28T00:34:02.259Z,4.45
2023-03-28T00:36:19.332Z,5.28
2023-03-28T00:38:36.405Z,6.68
2023-03-28T00:40:54.651Z,6.50
2023-03-28T00:43:11.886Z,6.32
2023-03-28T00:45:28.882Z,2.50
2023-03-28T00:47:46.051Z,3.95
2023-03-28T00:50:03.469Z,6.50
2023-03-28T00:52:20.403Z,4.70
2023-03-28T00:54:37.395Z,3.97
2023-03-28T00:56:54.386Z,4.72
2023-03-28T00:59:11.289Z,4.68
2023-03-28T01:01:28.386Z,5.63
2023-03-28T01:03:45.785Z,5.53
2023-03-28T01:06:03.196Z,4.85
2023-03-28T01:08:20.233Z,7.22
2023-03-28T01:10:37.289Z,3.45
2023-03-28T01:12:54.576Z,4.22
2023-03-28T01:15:13.051Z,2.78
2023-03-28T01:17:29.953Z,6.60
2023-03-28T01:19:47.026Z,8.20
2023-03-28T01:22:04.031Z,3.95
2023-03-28T01:24:21.366Z,4.82
2023-03-28T01:26:38.510Z,5.45
2023-03-28T01:28:55.503Z,7.30
2023-03-28T01:31:12.803Z,6.65
2023-03-28T01:33:29.908Z,5.82
2023-03-28T01:35:46.946Z,17.15
2023-03-28T01:38:04.006Z,3.90
2023-03-28T01:40:20.835Z,5.10
2023-03-28T01:42:37.887Z,4.07
2023-03-28T01:44:54.977Z,6.72
2023-03-28T01:47:12.281Z,3.90
2023-03-28T01:49:29.349Z,4.82
2023-03-28T01:51:46.608Z,7.43
2023-03-28T01:54:04.584Z,4.30
2023-03-28T01:56:21.608Z,4.90
2023-03-28T01:58:38.645Z,4.97
2023-03-28T02:00:55.742Z,6.43
2023-03-28T02:03:13.159Z,6.13
2023-03-28T02:05:30.527Z,4.38
2023-03-28T02:07:47.626Z,8.73
2023-03-28T02:10:04.527Z,6.88
2023-03-28T02:12:21.476Z,5.93
2023-03-28T02:14:38.689Z,5.95
2023-03-28T02:16:55.746Z,4.00
2023-03-28T02:19:13.098Z,3.38
2023-03-28T02:21:29.996Z,4.10
2023-03-28T02:23:46.997Z,5.40
2023-03-28T02:26:05.077Z,4.68
2023-03-28T02:28:23.412Z,4.38
2023-03-28T02:30:40.693Z,7.68
2023-03-28T02:32:58.014Z,8.05
2023-03-28T02:35:15.283Z,3.83
2023-03-28T02:37:33.552Z,6.10
2023-03-28T02:39:50.619Z,3.90
2023-03-28T02:42:07.605Z,5.25
2023-03-28T02:44:27.192Z,7.55
2023-03-28T02:46:44.333Z,5.97
2023-03-28T02:49:01.642Z,6.20
2023-03-28T02:51:18.642Z,6.07
2023-03-28T02:53:36.831Z,3.72
2023-03-28T02:55:54.154Z,4.07
2023-03-28T02:58:11.576Z,8.50
2023-03-28T03:00:30.556Z,6.78
2023-03-28T03:02:47.509Z,5.90
2023-03-28T03:05:04.850Z,7.70
2023-03-28T03:07:21.846Z,5.82
2023-03-28T03:09:38.822Z,5.40
2023-03-28T03:11:55.753Z,4.97
2023-03-28T03:14:12.816Z,8.23
2023-03-28T03:16:30.081Z,8.65
2023-03-28T03:18:47.029Z,4.40
2023-03-28T03:21:04.319Z,5.38
2023-03-28T03:23:21.674Z,8.98
2023-03-28T03:25:38.980Z,5.18
2023-03-28T03:27:56.190Z,5.93
2023-03-28T03:30:13.190Z,6.93
2023-03-28T03:32:31.314Z,6.78
2023-03-28T03:34:48.328Z,8.77
2023-03-28T03:37:05.599Z,11.10
2023-03-28T03:39:23.798Z,5.15
2023-03-28T03:41:41.018Z,8.25
2023-03-28T03:43:58.364Z,5.00
2023-03-28T03:46:15.471Z,8.10
2023-03-28T03:48:32.526Z,5.38
2023-03-28T03:50:49.592Z,11.73
2023-03-28T03:53:06.579Z,10.77
2023-03-28T03:55:23.892Z,9.60
2023-03-28T03:57:41.161Z,10.38
2023-03-28T03:59:58.196Z,7.85
2023-03-28T04:02:15.239Z,8.85
2023-03-28T04:04:32.293Z,7.65
2023-03-28T04:06:49.387Z,10.25
2023-03-28T04:09:06.707Z,6.80
2023-03-28T04:11:23.770Z,4.22
2023-03-28T04:13:40.962Z,8.77
2023-03-28T04:15:58.089Z,8.10
2023-03-28T04:18:15.580Z,4.88
2023-03-28T04:20:32.659Z,7.28
2023-03-28T04:22:49.719Z,8.00
2023-03-28T04:25:06.638Z,6.70
2023-03-28T04:27:23.681Z,7.60
2023-03-28T04:29:40.717Z,5.25
2023-03-28T04:31:57.773Z,8.10
2023-03-28T04:34:15.973Z,5.60
2023-03-28T04:36:33.052Z,8.73
2023-03-28T04:38:50.002Z,7.75
2023-03-28T04:41:06.989Z,7.63
2023-03-28T04:43:24.004Z,4.82
2023-03-28T04:45:42.284Z,5.90
2023-03-28T04:47:59.196Z,8.80
2023-03-28T04:50:16.491Z,6.32
2023-03-28T04:52:34.482Z,5.47
2023-03-28T04:54:51.409Z,6.05
2023-03-28T04:57:08.391Z,4.85
2023-03-28T04:59:25.444Z,6.00
2023-03-28T05:01:42.476Z,5.15
2023-03-28T05:03:59.831Z,12.38
2023-03-28T05:06:16.766Z,5.22
2023-03-28T05:08:33.836Z,6.60
2023-03-28T05:10:50.826Z,6.43
2023-03-28T05:13:08.142Z,5.60
2023-03-28T05:15:25.371Z,5.35
2023-03-28T05:17:42.720Z,7.47
2023-03-28T05:19:59.758Z,6.93
2023-03-28T05:22:17.824Z,7.00
2023-03-28T05:24:36.865Z,8.20
2023-03-28T05:26:54.066Z,5.55
2023-03-28T05:29:11.130Z,6.20
2023-03-28T05:31:28.187Z,5.63
2023-03-28T05:33:46.462Z,5.40
2023-03-28T05:36:03.515Z,9.85
2023-03-28T05:38:20.610Z,7.30
2023-03-28T05:40:37.701Z,7.30
2023-03-28T05:42:54.587Z,7.03
2023-03-28T05:45:11.617Z,8.10
2023-03-28T05:47:28.924Z,9.95
2023-03-28T05:49:47.290Z,8.82
2023-03-28T05:52:04.557Z,7.15
2023-03-28T05:54:23.351Z,6.82
2023-03-28T05:56:40.448Z,8.63
2023-03-28T05:58:57.799Z,16.83
2023-03-28T06:01:14.785Z,11.27
2023-03-28T06:03:31.938Z,11.90
2023-03-28T06:05:49.274Z,7.78
2023-03-28T06:08:06.282Z,7.65
2023-03-28T06:10:23.287Z,7.00
2023-03-28T06:12:40.231Z,8.07
2023-03-28T06:14:57.470Z,6.50
2023-03-28T06:17:14.747Z,11.38
2023-03-28T06:19:32.027Z,8.27
2023-03-28T06:21:49.051Z,7.00
2023-03-28T06:24:06.088Z,7.25
2023-03-28T06:26:23.149Z,8.70
2023-03-28T06:28:40.414Z,12.05
2023-03-28T06:30:58.657Z,14.98
2023-03-28T06:33:16.007Z,7.07
2023-03-28T06:35:33.085Z,12.75
2023-03-28T06:37:50.299Z,9.45
2023-03-28T06:40:07.632Z,8.63
2023-03-28T06:42:25.823Z,9.23
2023-03-28T06:44:42.924Z,11.45
2023-03-28T06:46:59.977Z,9.77
2023-03-28T06:49:18.040Z,10.27
2023-03-28T06:51:35.239Z,9.52
2023-03-28T06:53:52.493Z,8.18
2023-03-28T06:56:09.703Z,9.55
2023-03-28T06:58:26.720Z,6.25
2023-03-28T07:00:43.944Z,6.88
2023-03-28T07:03:01.348Z,7.63
2023-03-28T07:05:18.419Z,4.40
2023-03-28T07:07:35.390Z,4.47
2023-03-28T07:09:53.761Z,6.05
2023-03-28T07:12:10.821Z,6.72
2023-03-28T07:14:27.862Z,4.88
2023-03-28T07:16:45.178Z,6.18
2023-03-28T07:19:02.265Z,8.02
2023-03-28T07:21:19.367Z,11.00
2023-03-28T07:23:36.699Z,10.57
2023-03-28T07:25:54.626Z,8.93
2023-03-28T07:28:11.622Z,9.55
2023-03-28T07:30:28.745Z,8.32
2023-03-28T07:35:05.701Z,7.95
2023-03-28T07:37:22.732Z,7.90
2023-03-28T07:39:39.754Z,12.15
2023-03-28T07:41:57.012Z,7.00
2023-03-28T07:44:14.308Z,6.80
2023-03-28T07:46:31.218Z,9.85
2023-03-28T07:48:48.522Z,8.68
2023-03-28T07:51:05.509Z,5.85
2023-03-28T07:53:22.554Z,6.15
2023-03-28T07:57:59.812Z,9.80
2023-03-28T08:00:16.750Z,8.57
2023-03-28T08:02:33.855Z,9.40
2023-03-28T08:04:51.819Z,11.25
2023-03-28T08:07:08.817Z,14.38
2023-03-28T08:09:26.037Z,14.88
2023-03-28T08:11:43.319Z,7.72
2023-03-28T08:14:00.321Z,10.93
2023-03-28T08:16:17.662Z,8.82
2023-03-28T08:18:34.722Z,11.27
2023-03-28T08:20:51.665Z,10.23
2023-03-28T08:23:09.003Z,10.02
2023-03-28T08:25:26.365Z,9.27
2023-03-28T08:27:43.607Z,7.32
2023-03-28T08:30:00.618Z,6.50
2023-03-28T08:32:17.580Z,8.90
2023-03-28T08:34:34.696Z,8.38
2023-03-28T08:36:52.644Z,7.45
2023-03-28T08:39:09.975Z,7.25
2023-03-28T08:41:27.002Z,8.95
2023-03-28T08:43:45.018Z,5.78
2023-03-28T08:46:03.076Z,9.18
2023-03-28T08:48:20.704Z,10.27
2023-03-28T08:50:37.652Z,10.32
2023-03-28T08:52:54.918Z,6.25
2023-03-28T08:55:12.073Z,10.30
2023-03-28T08:57:29.022Z,7.80
2023-03-28T08:59:46.041Z,6.35
2023-03-28T09:02:03.056Z,5.63
2023-03-28T09:04:21.064Z,5.63
2023-03-28T09:06:38.175Z,5.60
2023-03-28T09:08:55.395Z,5.88
2023-03-28T09:11:12.471Z,5.93
2023-03-28T09:13:29.332Z,7.78
2023-03-28T09:15:46.602Z,3.80
2023-03-28T09:18:03.954Z,6.45
2023-03-28T09:20:21.279Z,5.45
2023-03-28T09:22:39.128Z,7.70
2023-03-28T09:24:56.198Z,9.40
2023-03-28T09:27:13.226Z,12.48
2023-03-28T09:29:30.314Z,10.25
2023-03-28T09:31:47.360Z,8.90
2023-03-28T09:34:04.374Z,6.00
2023-03-28T09:36:21.380Z,16.35
2023-03-28T09:38:38.722Z,32.58
2023-03-28T09:40:55.797Z,43.05
2023-03-28T09:43:13.767Z,21.70
2023-03-28T09:45:32.083Z,14.23
2023-03-28T09:47:49.292Z,6.05
2023-03-28T09:50:16.242Z,4.13
2023-03-28T09:52:33.184Z,4.13
2023-03-28T09:54:50.100Z,5.22
2023-03-28T09:57:07.421Z,6.93
2023-03-28T09:59:26.231Z,6.03
2023-03-28T10:01:45.552Z,10.10
2023-03-28T10:04:02.622Z,4.63
2023-03-28T10:06:20.964Z,7.25
2023-03-28T10:08:37.851Z,6.25
2023-03-28T10:10:55.037Z,4.82
2023-03-28T10:13:12.077Z,5.00
2023-03-28T10:15:29.153Z,4.30
2023-03-28T10:17:46.191Z,6.57
2023-03-28T10:20:03.525Z,6.53
2023-03-28T10:22:20.537Z,11.15
2023-03-28T10:24:37.863Z,8.30
2023-03-28T10:26:55.100Z,6.47
2023-03-28T10:29:12.173Z,6.22
2023-03-28T10:31:29.529Z,6.43
2023-03-28T10:33:46.778Z,5.53
2023-03-28T10:36:04.149Z,5.63
2023-03-28T10:38:21.183Z,6.85
2023-03-28T10:40:38.579Z,4.38
2023-03-28T10:42:55.634Z,7.53
2023-03-28T10:45:12.582Z,5.57
2023-03-28T10:47:30.650Z,10.55
2023-03-28T10:49:47.667Z,7.82
2023-03-28T10:52:05.006Z,8.80
2023-03-28T10:54:22.260Z,6.20
2023-03-28T10:56:39.342Z,8.30
2023-03-28T10:58:56.282Z,5.45
2023-03-28T11:01:13.317Z,6.05
2023-03-28T11:03:30.472Z,5.72
2023-03-28T11:05:54.928Z,9.63
2023-03-28T11:08:19.067Z,4.80
2023-03-28T11:10:36.368Z,17.10
2023-03-28T11:12:56.113Z,18.10
2023-03-28T11:15:14.216Z,21.10
2023-03-28T11:17:31.275Z,50.80
2023-03-28T11:19:48.561Z,28.80
2023-03-28T11:22:05.584Z,30.63
2023-03-28T11:24:22.621Z,10.13
2023-03-28T11:26:39.658Z,9.65
2023-03-28T11:28:57.613Z,5.35
2023-03-28T11:31:15.572Z,3.58
2023-03-28T11:33:32.549Z,6.80
2023-03-28T11:35:49.532Z,6.90
2023-03-28T11:38:06.833Z,5.45
2023-03-28T11:40:23.776Z,4.20
2023-03-28T11:42:40.775Z,6.55
2023-03-28T11:44:58.104Z,8.68
2023-03-28T11:47:15.457Z,6.60
2023-03-28T11:49:32.508Z,7.68
2023-03-28T11:51:49.794Z,6.10
2023-03-28T11:54:06.768Z,6.78
2023-03-28T11:56:24.061Z,5.00
2023-03-28T11:58:42.103Z,8.40
2023-03-28T12:00:59.454Z,9.95
2023-03-28T12:03:17.158Z,5.65
2023-03-28T12:05:34.595Z,4.55
2023-03-28T12:07:51.656Z,4.93
2023-03-28T12:10:08.763Z,6.70
2023-03-28T12:12:25.841Z,6.20
2023-03-28T12:14:42.843Z,3.60
2023-03-28T12:16:59.924Z,6.20
2023-03-28T12:19:17.006Z,4.13
2023-03-28T12:21:34.332Z,3.30
2023-03-28T12:23:51.347Z,4.22
2023-03-28T12:26:08.570Z,4.63
2023-03-28T12:28:25.594Z,5.80
2023-03-28T12:30:42.899Z,7.00
2023-03-28T12:33:00.092Z,4.68
2023-03-28T12:35:18.226Z,5.20
2023-03-28T12:37:35.277Z,4.85
2023-03-28T12:39:54.936Z,4.95
2023-03-28T12:42:12.144Z,3.17
2023-03-28T12:44:30.219Z,5.20
2023-03-28T12:46:47.459Z,5.10
2023-03-28T12:49:04.791Z,5.50
2023-03-28T12:51:21.899Z,5.82
2023-03-28T12:53:39.510Z,6.15
2023-03-28T12:55:57.998Z,8.07
2023-03-28T12:58:15.101Z,4.13
2023-03-28T13:00:32.108Z,7.82
2023-03-28T13:02:49.618Z,5.88
2023-03-28T13:05:06.969Z,4.25
2023-03-28T13:07:24.364Z,6.32
2023-03-28T13:09:41.773Z,7.93
2023-03-28T13:11:59.109Z,4.50
2023-03-28T13:14:16.124Z,5.15
2023-03-28T13:16:33.245Z,5.05
2023-03-28T13:18:51.292Z,6.38
2023-03-28T13:21:08.312Z,5.20
2023-03-28T13:23:25.323Z,5.13
2023-03-28T13:25:42.326Z,6.47
2023-03-28T13:27:59.301Z,4.93
2023-03-28T13:30:16.328Z,5.63
2023-03-28T13:32:33.377Z,5.25
2023-03-28T13:34:51.342Z,4.45
2023-03-28T13:37:08.679Z,5.47
2023-03-28T13:39:26.569Z,6.82
2023-03-28T13:41:43.853Z,4.97
2023-03-28T13:44:01.148Z,3.70
2023-03-28T13:46:19.223Z,4.65
2023-03-28T13:48:36.288Z,4.72
2023-03-28T13:50:53.450Z,7.15
2023-03-28T13:53:11.469Z,5.05
2023-03-28T13:55:28.537Z,4.45
2023-03-28T13:57:45.582Z,4.88
2023-03-28T14:00:02.484Z,5.82
2023-03-28T14:02:19.503Z,5.63
2023-03-28T14:04:36.669Z,6.43
2023-03-28T14:06:53.979Z,4.88
2023-03-28T14:09:11.048Z,4.60
2023-03-28T14:11:28.302Z,4.22
2023-03-28T14:13:45.432Z,6.90
2023-03-28T14:16:02.411Z,4.63
2023-03-28T14:18:19.470Z,7.05
2023-03-28T14:20:37.824Z,4.70
2023-03-28T14:23:00.508Z,4.35
2023-03-28T14:25:19.494Z,5.15
2023-03-28T14:27:36.482Z,4.13
2023-03-28T14:29:53.545Z,4.20
2023-03-28T14:32:10.843Z,5.28
2023-03-28T14:34:28.103Z,4.00
2023-03-28T14:36:45.368Z,5.90
2023-03-28T14:39:02.257Z,5.25
2023-03-28T14:41:19.522Z,4.30
2023-03-28T14:43:37.423Z,4.78
2023-03-28T14:45:54.537Z,6.47
2023-03-28T14:48:11.900Z,5.40
2023-03-28T14:50:29.120Z,3.28
2023-03-28T14:52:46.351Z,4.13
2023-03-28T14:55:03.398Z,3.92
2023-03-28T14:57:20.757Z,6.63
2023-03-28T14:59:38.204Z,4.13
2023-03-28T15:01:55.249Z,6.60
2023-03-28T15:04:12.192Z,4.68
2023-03-28T15:06:29.425Z,5.28
2023-03-28T15:08:46.611Z,5.75
2023-03-28T15:11:03.618Z,5.65
2023-03-28T15:13:22.800Z,3.60
2023-03-28T15:15:40.651Z,5.97
2023-03-28T15:17:57.785Z,5.38
2023-03-28T15:20:14.705Z,4.47
2023-03-28T15:22:31.696Z,4.05
2023-03-28T15:24:48.792Z,5.40
2023-03-28T15:27:05.702Z,3.72
2023-03-28T15:29:22.651Z,3.55
2023-03-28T15:31:39.930Z,8.18
2023-03-28T15:33:56.969Z,5.90
2023-03-28T15:36:13.894Z,4.80
2023-03-28T15:38:30.833Z,5.40
2023-03-28T15:40:48.116Z,2.65
2023-03-28T15:43:05.464Z,4.57
2023-03-28T15:45:22.589Z,7.25
2023-03-28T15:47:39.533Z,2.95
2023-03-28T15:49:56.563Z,5.22
2023-03-28T15:52:13.561Z,2.92
2023-03-28T15:54:32.020Z,3.95
2023-03-28T15:56:49.466Z,4.32
2023-03-28T15:59:06.456Z,3.35
2023-03-28T16:01:23.444Z,4.95
2023-03-28T16:03:40.814Z,6.00
2023-03-28T16:06:07.651Z,5.10
2023-03-28T16:08:27.315Z,5.70
2023-03-28T16:10:45.265Z,4.45
2023-03-28T16:13:02.519Z,3.42
2023-03-28T16:15:19.434Z,2.97
2023-03-28T16:17:36.575Z,5.47
2023-03-28T16:19:53.614Z,3.47
2023-03-28T16:22:10.903Z,2.75
2023-03-28T16:24:29.137Z,5.45
2023-03-28T16:26:46.334Z,7.35
2023-03-28T16:29:03.328Z,4.88
2023-03-28T16:31:20.664Z,4.18
2023-03-28T16:33:38.906Z,5.55
2023-03-28T16:35:56.078Z,4.10
2023-03-28T16:38:13.156Z,5.93
2023-03-28T16:40:30.431Z,6.18
2023-03-28T16:42:47.733Z,4.32
2023-03-28T16:45:04.740Z,7.35
2023-03-28T16:47:21.773Z,10.32
2023-03-28T16:49:39.715Z,6.30
2023-03-28T16:51:57.942Z,3.50
2023-03-28T16:54:14.938Z,4.43
2023-03-28T16:56:32.209Z,4.20
2023-03-28T16:58:49.487Z,4.18
2023-03-28T17:01:06.359Z,5.05
2023-03-28T17:05:41.435Z,4.05
2023-03-28T17:07:58.684Z,3.55
2023-03-28T17:10:15.726Z,4.80
2023-03-28T17:12:33.964Z,2.80
2023-03-28T17:14:50.982Z,3.35
2023-03-28T17:17:07.954Z,2.53
2023-03-28T17:19:25.281Z,4.50
2023-03-28T17:21:42.488Z,4.88
2023-03-28T17:23:59.456Z,3.33
2023-03-28T17:26:16.772Z,3.83
2023-03-28T17:28:33.786Z,3.55
2023-03-28T17:30:51.020Z,2.72
2023-03-28T17:33:08.204Z,6.15
2023-03-28T17:35:25.569Z,2.83
2023-03-28T17:37:42.861Z,4.65
2023-03-28T17:40:00.128Z,5.85
2023-03-28T17:42:17.224Z,2.60
2023-03-28T17:44:34.196Z,4.47
2023-03-28T17:46:51.443Z,5.75
2023-03-28T17:49:08.547Z,4.22
2023-03-28T17:51:25.802Z,3.10
2023-03-28T17:53:43.107Z,4.85
2023-03-28T17:56:00.544Z,5.03
2023-03-28T17:58:17.791Z,4.40
2023-03-28T18:00:34.773Z,4.25
2023-03-28T18:02:51.921Z,6.18
2023-03-28T18:05:09.284Z,3.78
2023-03-28T18:07:26.619Z,5.75
2023-03-28T18:09:43.660Z,4.88
2023-03-28T18:12:00.737Z,5.88
2023-03-28T18:14:18.070Z,4.70
2023-03-28T18:16:35.370Z,5.13
2023-03-28T18:18:53.448Z,6.10
2023-03-28T18:21:10.527Z,5.57
2023-03-28T18:23:27.505Z,4.57
2023-03-28T18:25:44.409Z,4.22
2023-03-28T18:28:01.731Z,3.40
2023-03-28T18:30:19.046Z,3.70
2023-03-28T18:32:36.127Z,4.82
2023-03-28T18:34:53.526Z,3.17
2023-03-28T18:37:10.823Z,5.68
2023-03-28T18:39:28.218Z,3.65
2023-03-28T18:41:45.732Z,5.22
2023-03-28T18:44:02.618Z,4.68
2023-03-28T18:46:19.833Z,6.82
2023-03-28T18:48:36.865Z,7.20
2023-03-28T18:50:53.923Z,7.28
2023-03-28T18:53:10.998Z,5.28
2023-03-28T18:55:28.002Z,6.28
2023-03-28T18:57:45.928Z,5.72
2023-03-28T19:00:03.828Z,3.42
2023-03-28T19:02:20.748Z,2.88
2023-03-28T19:04:38.044Z,3.83
2023-03-28T19:06:56.115Z,4.90
2023-03-28T19:09:13.453Z,4.43
2023-03-28T19:11:32.520Z,3.80
2023-03-28T19:13:49.823Z,5.97
2023-03-28T19:16:07.291Z,5.93
2023-03-28T19:18:24.281Z,5.70
2023-03-28T19:20:42.295Z,3.10
2023-03-28T19:22:59.553Z,4.55
2023-03-28T19:25:16.619Z,5.50
2023-03-28T19:27:33.529Z,3.17
2023-03-28T19:29:50.537Z,5.32
2023-03-28T19:32:07.485Z,5.20
2023-03-28T19:34:24.438Z,4.03
2023-03-28T19:36:41.352Z,3.03
2023-03-28T19:38:58.247Z,4.15
2023-03-28T19:41:15.818Z,4.45
2023-03-28T19:43:32.928Z,2.97
2023-03-28T19:45:49.927Z,5.25
2023-03-28T19:48:07.092Z,6.10
2023-03-28T19:50:24.431Z,6.15
2023-03-28T19:52:41.466Z,8.48
2023-03-28T19:54:58.693Z,3.85
2023-03-28T19:57:15.783Z,3.97
2023-03-28T19:59:33.069Z,4.68
2023-03-28T20:01:50.182Z,6.47
2023-03-28T20:04:07.329Z,4.40
2023-03-28T20:06:24.354Z,3.80
2023-03-28T20:08:41.257Z,4.05
2023-03-28T20:10:58.676Z,6.32
2023-03-28T20:13:16.153Z,6.70
2023-03-28T20:15:33.233Z,4.53
2023-03-28T20:17:51.581Z,4.45
2023-03-28T20:20:08.618Z,5.38
2023-03-28T20:22:25.597Z,7.38
2023-03-28T20:24:42.544Z,4.32
2023-03-28T20:26:59.561Z,4.65
2023-03-28T20:29:16.645Z,5.75
2023-03-28T20:31:33.784Z,4.32
2023-03-28T20:33:50.829Z,8.10
2023-03-28T20:36:08.900Z,4.82
2023-03-28T20:38:26.890Z,4.68
2023-03-28T20:40:43.903Z,3.67
2023-03-28T20:43:01.414Z,4.70
2023-03-28T20:45:18.709Z,5.25
2023-03-28T20:47:35.696Z,5.65
2023-03-28T20:49:52.734Z,3.85
2023-03-28T20:52:09.797Z,3.55
2023-03-28T20:54:26.750Z,4.75
2023-03-28T20:56:43.761Z,6.43
2023-03-28T20:59:00.793Z,5.90
2023-03-28T21:01:18.189Z,4.88
2023-03-28T21:03:35.271Z,5.20
2023-03-28T21:05:52.278Z,6.03
2023-03-28T21:08:09.602Z,5.57
2023-03-28T21:10:26.945Z,6.40
2023-03-28T21:12:44.265Z,8.15
2023-03-28T21:15:01.387Z,5.00
2023-03-28T21:17:19.642Z,5.25
2023-03-28T21:19:37.929Z,4.05
2023-03-28T21:21:54.942Z,4.78
2023-03-28T21:24:11.997Z,3.45
2023-03-28T21:26:29.251Z,4.88
2023-03-28T21:28:46.370Z,4.75
2023-03-28T21:31:04.023Z,3.90
2023-03-28T21:33:21.300Z,5.82
2023-03-28T21:35:38.258Z,3.90
2023-03-28T21:37:55.249Z,5.32
2023-03-28T21:40:12.492Z,4.93
2023-03-28T21:42:29.531Z,4.72
2023-03-28T21:44:46.810Z,6.93
2023-03-28T21:47:04.098Z,4.32
2023-03-28T21:49:21.121Z,4.43
2023-03-28T21:51:38.421Z,4.40
2023-03-28T21:53:55.454Z,4.78
2023-03-28T21:56:12.878Z,4.20
2023-03-28T21:58:31.183Z,6.78
2023-03-28T22:00:48.234Z,4.65
2023-03-28T22:03:06.199Z,4.03
2023-03-28T22:05:29.834Z,5.30
2023-03-28T22:07:47.002Z,4.38
2023-03-28T22:10:04.055Z,7.50
2023-03-28T22:12:21.058Z,5.28
2023-03-28T22:14:38.010Z,5.30
2023-03-28T22:16:55.262Z,4.47
2023-03-28T22:19:12.351Z,5.40
2023-03-28T22:21:29.376Z,4.22
2023-03-28T22:23:47.067Z,4.07
2023-03-28T22:26:05.590Z,5.15
2023-03-28T22:28:22.686Z,4.85
2023-03-28T22:30:39.915Z,3.63
2023-03-28T22:32:58.981Z,6.60
2023-03-28T22:35:17.106Z,3.33
2023-03-28T22:37:34.365Z,5.05
2023-03-28T22:39:51.411Z,4.25
2023-03-28T22:42:08.702Z,3.58
2023-03-28T22:44:25.790Z,6.70
2023-03-28T22:46:42.940Z,4.50
2023-03-28T22:49:00.243Z,4.13
2023-03-28T22:51:17.537Z,7.38
2023-03-28T22:53:34.604Z,3.75
2023-03-28T22:55:51.648Z,4.43
2023-03-28T22:58:08.665Z,3.50
2023-03-28T23:00:25.596Z,4.70
2023-03-28T23:02:42.670Z,3.25
2023-03-28T23:04:59.744Z,4.85
2023-03-28T23:07:17.019Z,7.20
2023-03-28T23:09:34.040Z,4.68
2023-03-28T23:11:51.397Z,5.60
2023-03-28T23:14:09.467Z,5.43
2023-03-28T23:16:26.793Z,4.72
2023-03-28T23:18:44.726Z,3.50
2023-03-28T23:21:02.474Z,6.45
2023-03-28T23:23:19.639Z,7.90
2023-03-28T23:25:36.606Z,4.30
2023-03-28T23:27:53.635Z,5.28
2023-03-28T23:30:11.981Z,6.30
2023-03-28T23:32:29.141Z,4.78
2023-03-28T23:34:46.432Z,3.85
2023-03-28T23:37:03.487Z,3.35
2023-03-28T23:39:20.578Z,4.03
2023-03-28T23:41:37.635Z,3.80
2023-03-28T23:43:54.579Z,5.00
2023-03-28T23:46:11.604Z,4.40
2023-03-28T23:48:28.462Z,6.05
2023-03-28T23:50:45.559Z,4.03
2023-03-28T23:53:03.428Z,4.75
2023-03-28T23:55:20.501Z,5.57
2023-03-28T23:57:38.418Z,3.50
2023-03-28T23:59:56.569Z,5.80
